createdAt,value
2023-05-12T00:00:21.687Z,99819.84
2023-05-12T00:02:48.884Z,99821.94
2023-05-12T00:05:15.938Z,99823.22
2023-05-12T00:07:42.902Z,99827.31
2023-05-12T00:10:10.123Z,99830.56
2023-05-12T00:12:37.286Z,99834.00
2023-05-12T00:15:04.489Z,99840.25
2023-05-12T00:17:31.554Z,99841.06
2023-05-12T00:19:58.548Z,99840.19
2023-05-12T00:22:27.020Z,99834.69
2023-05-12T00:24:53.943Z,99833.91
2023-05-12T00:27:20.952Z,99841.13
2023-05-12T00:29:47.922Z,99835.53
2023-05-12T00:32:15.005Z,99834.19
2023-05-12T00:34:42.635Z,99832.09
2023-05-12T00:37:10.104Z,99835.16
2023-05-12T00:39:38.184Z,99834.50
2023-05-12T00:42:05.880Z,99843.03
2023-05-12T00:44:32.807Z,99835.81
2023-05-12T00:47:00.320Z,99834.50
2023-05-12T00:49:27.656Z,99842.44
2023-05-12T00:51:56.107Z,99847.72
2023-05-12T00:54:23.444Z,99846.63
2023-05-12T00:56:50.637Z,99851.88
2023-05-12T00:59:18.430Z,99842.97
2023-05-12T01:01:45.564Z,99846.50
2023-05-12T01:04:13.955Z,99845.88
2023-05-12T01:06:58.409Z,99841.88
2023-05-12T01:09:25.867Z,99838.19
2023-05-12T01:11:52.800Z,99845.06
2023-05-12T01:14:19.812Z,99833.38
2023-05-12T01:16:52.166Z,99841.47
2023-05-12T01:19:38.760Z,99844.63
2023-05-12T01:22:08.176Z,99835.88
2023-05-12T01:24:40.140Z,99838.41
2023-05-12T01:27:08.376Z,99845.88
2023-05-12T01:29:36.134Z,99843.66
2023-05-12T01:32:03.417Z,99846.81
2023-05-12T01:34:30.824Z,99853.38
2023-05-12T01:36:57.803Z,99847.25
2023-05-12T01:39:24.674Z,99841.50
2023-05-12T01:41:51.712Z,99846.56
2023-05-12T01:44:18.744Z,99840.53
2023-05-12T01:46:45.692Z,99843.44
2023-05-12T01:49:12.773Z,99838.84
2023-05-12T01:51:39.710Z,99840.88
2023-05-12T01:54:06.813Z,99845.25
2023-05-12T01:56:37.532Z,99839.91
2023-05-12T01:59:04.659Z,99843.81
2023-05-12T02:01:32.564Z,99846.50
2023-05-12T02:04:00.269Z,99836.41
2023-05-12T02:06:28.872Z,99841.41
2023-05-12T02:08:57.029Z,99840.44
2023-05-12T02:11:24.094Z,99839.97
2023-05-12T02:13:51.421Z,99840.66
2023-05-12T02:16:18.464Z,99838.34
2023-05-12T02:18:46.019Z,99847.78
2023-05-12T02:21:13.029Z,99845.50
2023-05-12T02:23:39.960Z,99836.03
2023-05-12T02:26:06.940Z,99852.84
2023-05-12T02:28:36.760Z,99848.34
2023-05-12T02:31:04.706Z,99848.59
2023-05-12T02:33:32.071Z,99842.63
2023-05-12T02:35:59.023Z,99845.88
2023-05-12T02:38:26.006Z,99842.59
2023-05-12T02:40:52.929Z,99849.50
2023-05-12T02:43:20.816Z,99843.13
2023-05-12T02:45:47.860Z,99842.41
2023-05-12T02:48:14.831Z,99841.13
2023-05-12T02:50:42.149Z,99847.25
2023-05-12T02:53:09.408Z,99855.31
2023-05-12T02:55:36.421Z,99843.97
2023-05-12T02:58:03.906Z,99840.66
2023-05-12T03:00:30.970Z,99841.63
2023-05-12T03:02:57.919Z,99840.72
2023-05-12T03:05:24.937Z,99843.81
2023-05-12T03:07:51.932Z,99839.25
2023-05-12T03:10:19.492Z,99841.94
2023-05-12T03:12:46.911Z,99834.75
2023-05-12T03:15:13.860Z,99834.09
2023-05-12T03:17:40.918Z,99831.69
2023-05-12T03:20:08.587Z,99834.84
2023-05-12T03:22:37.006Z,99835.66
2023-05-12T03:25:05.330Z,99837.72
2023-05-12T03:27:35.440Z,99828.25
2023-05-12T03:30:08.063Z,99815.25
2023-05-12T03:32:39.414Z,99830.66
2023-05-12T03:35:09.469Z,99820.50
2023-05-12T03:37:36.762Z,99820.84
2023-05-12T03:40:04.236Z,99826.69
2023-05-12T03:42:31.339Z,99823.25
2023-05-12T03:44:58.778Z,99821.69
2023-05-12T03:47:27.749Z,99818.75
2023-05-12T03:49:56.112Z,99825.56
2023-05-12T03:52:23.640Z,99818.69
2023-05-12T03:54:50.948Z,99830.34
2023-05-12T03:57:18.607Z,99831.63
2023-05-12T03:59:45.564Z,99827.88
2023-05-12T04:02:13.359Z,99833.13
2023-05-12T04:04:40.413Z,99830.88
2023-05-12T04:07:07.667Z,99834.16
2023-05-12T04:09:34.642Z,99831.47
2023-05-12T04:12:01.780Z,99825.66
2023-05-12T04:14:41.673Z,99826.00
2023-05-12T04:17:09.642Z,99840.66
2023-05-12T04:19:36.604Z,99840.66
2023-05-12T04:22:03.933Z,99835.50
2023-05-12T04:24:31.537Z,99846.50
2023-05-12T04:26:58.546Z,99849.88
2023-05-12T04:29:25.987Z,99855.41
2023-05-12T04:31:55.667Z,99857.28
2023-05-12T04:34:22.941Z,99846.88
2023-05-12T04:36:50.243Z,99856.22
2023-05-12T04:39:17.298Z,99856.06
2023-05-12T04:41:44.486Z,99849.94
2023-05-12T04:44:11.577Z,99861.22
2023-05-12T04:46:39.727Z,99861.91
2023-05-12T04:49:06.949Z,99862.50
2023-05-12T04:51:33.891Z,99872.91
2023-05-12T04:54:00.821Z,99873.88
2023-05-12T04:56:27.776Z,99872.91
2023-05-12T04:58:54.835Z,99872.72
2023-05-12T05:01:22.350Z,99873.44
2023-05-12T05:03:49.561Z,99875.50
2023-05-12T05:06:17.139Z,99878.97
2023-05-12T05:08:44.621Z,99875.16
2023-05-12T05:11:11.709Z,99878.34
2023-05-12T05:13:38.770Z,99884.03
2023-05-12T05:16:07.015Z,99885.38
2023-05-12T05:18:34.514Z,99881.88
2023-05-12T05:21:01.906Z,99886.38
2023-05-12T05:23:29.127Z,99886.59
2023-05-12T05:25:56.378Z,99895.16
2023-05-12T05:28:23.639Z,99888.38
2023-05-12T05:30:50.607Z,99895.03
2023-05-12T05:33:17.638Z,99899.38
2023-05-12T05:35:45.812Z,99899.97
2023-05-12T05:38:13.392Z,99900.50
2023-05-12T05:40:52.362Z,99902.50
2023-05-12T05:43:21.632Z,99897.66
2023-05-12T05:45:50.138Z,99887.16
2023-05-12T05:48:18.310Z,99885.06
2023-05-12T05:50:46.964Z,99893.75
2023-05-12T05:53:14.411Z,99895.94
2023-05-12T05:55:41.515Z,99903.63
2023-05-12T05:58:08.910Z,99903.63
2023-05-12T06:00:36.307Z,99914.53
2023-05-12T06:03:03.874Z,99906.09
2023-05-12T06:05:31.253Z,99910.34
2023-05-12T06:07:58.305Z,99909.00
2023-05-12T06:10:26.056Z,99905.03
2023-05-12T06:12:53.234Z,99910.81
2023-05-12T06:15:21.690Z,99907.72
2023-05-12T06:17:49.971Z,99911.03
2023-05-12T06:20:17.071Z,99920.75
2023-05-12T06:22:45.309Z,99926.91
2023-05-12T06:25:12.422Z,99928.25
2023-05-12T06:27:39.513Z,99928.31
2023-05-12T06:30:07.540Z,99924.88
2023-05-12T06:32:35.014Z,99927.56
2023-05-12T06:35:02.174Z,99923.09
2023-05-12T06:37:29.225Z,99916.22
2023-05-12T06:39:56.214Z,99917.91
2023-05-12T06:42:24.650Z,99924.63
2023-05-12T06:44:52.148Z,99920.63
2023-05-12T06:47:21.039Z,99926.81
2023-05-12T06:49:50.394Z,99930.50
2023-05-12T06:52:17.670Z,99930.84
2023-05-12T06:54:44.605Z,99931.59
2023-05-12T06:57:11.652Z,99944.47
2023-05-12T06:59:39.076Z,99937.50
2023-05-12T07:02:06.237Z,99937.13
2023-05-12T07:04:33.155Z,99938.53
2023-05-12T07:07:00.074Z,99938.69
2023-05-12T07:09:27.112Z,99948.16
2023-05-12T07:11:54.627Z,99944.78
2023-05-12T07:14:21.673Z,99942.75
2023-05-12T07:16:48.708Z,99956.44
2023-05-12T07:19:15.728Z,99952.47
2023-05-12T07:21:43.581Z,99953.44
2023-05-12T07:24:10.529Z,99953.75
2023-05-12T07:26:38.273Z,99954.16
2023-05-12T07:29:05.676Z,99957.59
2023-05-12T07:31:34.032Z,99953.75
2023-05-12T07:34:01.276Z,99950.94
2023-05-12T07:36:28.555Z,99961.19
2023-05-12T07:38:55.500Z,99950.78
2023-05-12T07:41:23.281Z,99947.78
2023-05-12T07:43:50.222Z,99957.13
2023-05-12T07:46:17.194Z,99951.66
2023-05-12T07:48:44.252Z,99952.19
2023-05-12T07:51:11.228Z,99952.59
2023-05-12T07:53:39.364Z,99949.56
2023-05-12T07:56:08.481Z,99952.25
2023-05-12T07:58:35.482Z,99950.47
2023-05-12T08:01:06.187Z,99950.19
2023-05-12T08:03:33.889Z,99959.53
2023-05-12T08:06:00.970Z,99957.38
2023-05-12T08:08:28.038Z,99960.72
2023-05-12T08:10:54.952Z,99959.41
2023-05-12T08:13:22.394Z,99960.06
2023-05-12T08:15:50.310Z,99960.06
2023-05-12T08:18:17.456Z,99962.69
2023-05-12T08:20:44.472Z,99962.69
2023-05-12T08:23:11.407Z,99964.53
2023-05-12T08:25:38.400Z,99965.81
2023-05-12T08:28:05.450Z,99957.44
2023-05-12T08:30:32.417Z,99969.06
2023-05-12T08:32:59.504Z,99968.75
2023-05-12T08:35:27.380Z,99964.97
2023-05-12T08:37:54.665Z,99965.34
2023-05-12T08:40:23.493Z,99966.50
2023-05-12T08:43:14.994Z,99966.09
2023-05-12T08:45:43.017Z,99970.94
2023-05-12T08:48:11.339Z,99973.09
2023-05-12T08:50:39.258Z,99973.38
2023-05-12T08:53:10.576Z,99983.13
2023-05-12T08:55:37.738Z,99981.44
2023-05-12T08:58:04.706Z,99973.22
2023-05-12T09:00:33.422Z,99980.41
2023-05-12T09:03:02.559Z,99983.97
2023-05-12T09:05:31.113Z,99986.31
2023-05-12T09:07:59.441Z,99990.09
2023-05-12T09:13:09.109Z,99986.44
2023-05-12T09:15:40.083Z,100001.88
2023-05-12T09:18:07.057Z,100008.88
2023-05-12T09:20:34.777Z,100007.13
2023-05-12T09:23:14.029Z,100010.63
2023-05-12T09:25:41.069Z,100008.84
2023-05-12T09:28:08.501Z,100015.28
2023-05-12T09:30:38.513Z,100025.91
2023-05-12T09:33:09.336Z,100017.47
2023-05-12T09:35:44.013Z,100019.81
2023-05-12T09:38:14.664Z,100017.41
2023-05-12T09:40:43.369Z,100017.41
2023-05-12T09:43:12.533Z,100016.59
2023-05-12T09:45:42.770Z,100004.97
2023-05-12T09:48:14.439Z,100000.81
2023-05-12T09:50:48.634Z,100008.50
2023-05-12T09:53:18.038Z,100004.09
2023-05-12T09:55:46.313Z,100011.69
2023-05-12T09:58:16.170Z,100019.34
2023-05-12T10:01:06.553Z,100008.53
2023-05-12T10:03:33.717Z,100009.53
2023-05-12T10:06:05.672Z,100016.25
2023-05-12T10:08:41.182Z,100012.88
2023-05-12T10:11:09.271Z,100017.91
2023-05-12T10:13:36.443Z,100012.19
2023-05-12T10:16:04.173Z,100013.47
2023-05-12T10:18:31.844Z,100015.16
2023-05-12T10:21:00.985Z,100018.38
2023-05-12T10:23:28.786Z,100018.28
2023-05-12T10:26:02.419Z,100013.94
2023-05-12T10:28:30.240Z,100016.19
2023-05-12T10:30:58.576Z,100012.44
2023-05-12T10:33:26.616Z,100018.59
2023-05-12T10:35:53.967Z,100015.59
2023-05-12T10:38:21.062Z,100019.00
2023-05-12T10:41:01.986Z,100023.53
2023-05-12T10:43:38.001Z,100017.06
2023-05-12T10:46:21.979Z,100019.47
2023-05-12T10:49:08.693Z,100023.91
2023-05-12T10:51:50.138Z,100025.00
2023-05-12T10:54:24.476Z,100023.59
2023-05-12T10:56:52.717Z,100027.56
2023-05-12T10:59:24.622Z,100033.19
2023-05-12T11:02:03.096Z,100028.84
2023-05-12T11:04:43.138Z,100032.50
2023-05-12T11:07:14.326Z,100023.34
2023-05-12T11:12:17.455Z,100035.78
2023-05-12T11:14:46.207Z,100029.16
2023-05-12T11:17:14.087Z,100025.09
2023-05-12T11:19:47.461Z,100031.38
2023-05-12T11:22:17.709Z,100026.44
2023-05-12T11:24:44.763Z,100021.63
2023-05-12T11:27:16.955Z,100037.25
2023-05-12T11:29:47.092Z,100031.28
2023-05-12T11:32:16.043Z,100036.59
2023-05-12T11:34:43.046Z,100031.97
2023-05-12T11:37:10.318Z,100036.41
2023-05-12T11:39:37.198Z,100030.19
2023-05-12T11:42:13.056Z,100029.84
2023-05-12T11:44:50.623Z,100027.84
2023-05-12T11:47:21.048Z,100023.72
2023-05-12T11:49:53.038Z,100028.44
2023-05-12T11:52:21.827Z,100026.97
2023-05-12T11:55:01.118Z,100023.19
2023-05-12T11:57:33.643Z,100026.88
2023-05-12T12:00:09.252Z,100024.97
2023-05-12T12:02:43.560Z,100021.38
2023-05-12T12:05:18.448Z,100012.28
2023-05-12T12:07:45.793Z,100014.69
2023-05-12T12:10:13.724Z,100015.81
2023-05-12T12:12:41.570Z,100004.44
2023-05-12T12:15:09.654Z,100005.28
2023-05-12T12:17:37.505Z,100008.84
2023-05-12T12:20:04.779Z,100001.19
2023-05-12T12:22:34.692Z,100008.44
2023-05-12T12:25:02.770Z,100007.63
2023-05-12T12:27:29.854Z,100012.59
2023-05-12T12:29:56.932Z,100006.66
2023-05-12T12:32:23.975Z,100012.38
2023-05-12T12:34:51.120Z,100011.56
2023-05-12T12:37:18.145Z,100014.69
2023-05-12T12:39:45.315Z,100015.00
2023-05-12T12:42:12.288Z,100019.78
2023-05-12T12:44:39.543Z,100026.38
2023-05-12T12:47:06.495Z,100021.88
2023-05-12T12:49:33.490Z,100022.97
2023-05-12T12:52:00.598Z,100018.44
2023-05-12T12:54:28.539Z,100013.84
2023-05-12T12:56:56.056Z,100016.53
2023-05-12T12:59:23.605Z,100016.84
2023-05-12T13:01:50.778Z,100012.97
2023-05-12T13:04:22.443Z,100015.16
2023-05-12T13:06:49.787Z,100013.63
2023-05-12T13:09:19.677Z,100007.28
2023-05-12T13:11:47.283Z,100017.13
2023-05-12T13:14:14.637Z,100010.97
2023-05-12T13:16:42.012Z,100013.91
2023-05-12T13:19:09.251Z,100018.78
2023-05-12T13:21:36.282Z,100015.44
2023-05-12T13:24:03.431Z,100013.22
2023-05-12T13:26:30.412Z,100013.41
2023-05-12T13:28:57.581Z,100018.94
2023-05-12T13:31:24.619Z,100010.41
2023-05-12T13:33:51.874Z,100018.22
2023-05-12T13:36:18.997Z,100020.22
2023-05-12T13:38:48.629Z,100023.72
2023-05-12T13:41:15.615Z,100028.44
2023-05-12T13:43:42.552Z,100026.09
2023-05-12T13:46:09.742Z,100020.56
2023-05-12T13:48:36.774Z,100021.50
2023-05-12T13:51:03.813Z,100024.19
2023-05-12T13:53:31.004Z,100032.44
2023-05-12T13:55:58.063Z,100015.47
2023-05-12T13:58:25.111Z,100019.81
2023-05-12T14:00:52.196Z,100022.25
2023-05-12T14:03:19.064Z,100025.31
2023-05-12T14:05:46.125Z,100026.56
2023-05-12T14:08:13.131Z,100022.31
2023-05-12T14:10:40.472Z,100022.47
2023-05-12T14:13:08.605Z,100022.84
2023-05-12T14:15:47.856Z,100014.00
2023-05-12T14:18:15.477Z,100015.09
2023-05-12T14:20:45.409Z,100009.44
2023-05-12T14:23:12.746Z,100010.84
2023-05-12T14:25:39.946Z,100008.34
2023-05-12T14:28:07.098Z,100008.44
2023-05-12T14:30:37.780Z,100005.97
2023-05-12T14:33:05.140Z,100014.59
2023-05-12T14:35:32.419Z,100008.03
2023-05-12T14:37:59.437Z,100005.53
2023-05-12T14:40:27.549Z,100008.06
2023-05-12T14:42:55.535Z,99996.41
2023-05-12T14:45:22.811Z,99998.00
2023-05-12T14:47:50.183Z,100003.00
2023-05-12T14:50:18.633Z,100002.94
2023-05-12T14:52:46.245Z,100007.03
2023-05-12T14:55:14.203Z,100006.41
2023-05-12T14:57:42.136Z,100014.16
2023-05-12T15:00:11.466Z,100016.94
2023-05-12T15:02:40.703Z,100021.38
2023-05-12T15:05:09.031Z,100015.53
2023-05-12T15:07:36.675Z,100005.94
2023-05-12T15:10:04.605Z,100020.16
2023-05-12T15:12:32.022Z,100019.63
2023-05-12T15:15:01.471Z,100013.94
2023-05-12T15:17:28.684Z,100016.41
2023-05-12T15:19:59.475Z,100017.41
2023-05-12T15:22:26.774Z,100018.19
2023-05-12T15:24:53.734Z,100020.72
2023-05-12T15:27:20.839Z,100027.50
2023-05-12T15:29:47.944Z,100027.09
2023-05-12T15:32:15.067Z,100035.00
2023-05-12T15:34:41.975Z,100035.09
2023-05-12T15:37:10.156Z,100039.47
2023-05-12T15:39:37.294Z,100045.72
2023-05-12T15:42:05.569Z,100050.50
2023-05-12T15:44:36.439Z,100050.13
2023-05-12T15:47:03.711Z,100046.28
2023-05-12T15:49:30.661Z,100050.66
2023-05-12T15:51:57.619Z,100061.31
2023-05-12T15:54:26.626Z,100063.41
2023-05-12T15:56:53.542Z,100071.16
2023-05-12T15:59:20.674Z,100058.19
2023-05-12T16:01:47.753Z,100057.31
2023-05-12T16:04:14.833Z,100051.84
2023-05-12T16:06:41.804Z,100057.63
2023-05-12T16:09:09.635Z,100059.00
2023-05-12T16:11:36.507Z,100058.66
2023-05-12T16:14:03.645Z,100050.13
2023-05-12T16:16:30.960Z,100050.00
2023-05-12T16:19:03.170Z,100053.41
2023-05-12T16:21:33.455Z,100051.22
2023-05-12T16:24:00.420Z,100051.19
2023-05-12T16:26:27.950Z,100052.72
2023-05-12T16:28:54.891Z,100056.81
2023-05-12T16:31:21.954Z,100046.72
2023-05-12T16:33:48.938Z,100048.50
2023-05-12T16:36:17.752Z,100047.19
2023-05-12T16:38:44.862Z,100051.41
2023-05-12T16:41:12.033Z,100047.41
2023-05-12T16:43:39.173Z,100054.38
2023-05-12T16:46:06.464Z,100055.66
2023-05-12T16:48:36.499Z,100053.91
2023-05-12T16:51:09.266Z,100056.34
2023-05-12T16:53:36.586Z,100059.75
2023-05-12T16:56:04.358Z,100054.38
2023-05-12T16:58:31.789Z,100055.56
2023-05-12T17:00:59.704Z,100069.09
2023-05-12T17:03:27.560Z,100065.66
2023-05-12T17:05:54.639Z,100055.59
2023-05-12T17:08:21.679Z,100064.13
2023-05-12T17:10:48.609Z,100061.97
2023-05-12T17:13:17.007Z,100062.56
2023-05-12T17:15:44.081Z,100060.44
2023-05-12T17:18:13.121Z,100067.94
2023-05-12T17:20:40.220Z,100063.25
2023-05-12T17:23:08.412Z,100060.09
2023-05-12T17:25:35.467Z,100059.69
2023-05-12T17:28:02.745Z,100066.72
2023-05-12T17:30:29.652Z,100060.00
2023-05-12T17:32:56.694Z,100063.44
2023-05-12T17:35:24.097Z,100067.56
2023-05-12T17:37:53.859Z,100073.53
2023-05-12T17:40:21.991Z,100070.13
2023-05-12T17:42:50.545Z,100074.78
2023-05-12T17:45:18.049Z,100076.88
2023-05-12T17:47:49.300Z,100079.53
2023-05-12T17:50:16.629Z,100082.41
2023-05-12T17:52:44.110Z,100089.91
2023-05-12T17:55:11.282Z,100090.13
2023-05-12T17:57:38.346Z,100097.41
2023-05-12T18:00:10.152Z,100107.09
2023-05-12T18:02:44.444Z,100104.75
2023-05-12T18:05:11.700Z,100107.50
2023-05-12T18:07:38.877Z,100112.91
2023-05-12T18:10:10.468Z,100119.16
2023-05-12T18:12:39.063Z,100111.16
2023-05-12T18:15:06.610Z,100116.78
2023-05-12T18:17:33.623Z,100124.50
2023-05-12T18:20:00.674Z,100125.72
2023-05-12T18:22:27.699Z,100125.53
2023-05-12T18:24:54.801Z,100119.31
2023-05-12T18:27:21.843Z,100124.22
2023-05-12T18:29:48.761Z,100123.47
2023-05-12T18:32:15.719Z,100122.66
2023-05-12T18:34:44.355Z,100128.56
2023-05-12T18:37:15.801Z,100133.22
2023-05-12T18:39:43.411Z,100140.41
2023-05-12T18:42:11.299Z,100143.56
2023-05-12T18:44:40.745Z,100145.56
2023-05-12T18:47:08.825Z,100150.69
2023-05-12T18:49:36.361Z,100148.78
2023-05-12T18:52:04.165Z,100156.81
2023-05-12T18:54:31.305Z,100153.06
2023-05-12T18:56:58.219Z,100174.19
2023-05-12T18:59:25.147Z,100167.47
2023-05-12T19:01:52.161Z,100180.97
2023-05-12T19:04:19.817Z,100181.03
2023-05-12T19:06:47.036Z,100194.53
2023-05-12T19:09:14.328Z,100195.13
2023-05-12T19:11:41.275Z,100197.84
2023-05-12T19:14:08.429Z,100187.84
2023-05-12T19:16:36.497Z,100191.94
2023-05-12T19:19:03.561Z,100189.63
2023-05-12T19:21:33.858Z,100197.88
2023-05-12T19:24:01.688Z,100195.53
2023-05-12T19:26:28.593Z,100197.41
2023-05-12T19:28:55.677Z,100190.94
2023-05-12T19:31:22.720Z,100195.84
2023-05-12T19:33:49.816Z,100201.25
2023-05-12T19:36:16.958Z,100199.16
2023-05-12T19:38:44.668Z,100202.47
2023-05-12T19:41:11.696Z,100198.25
2023-05-12T19:43:39.112Z,100202.69
2023-05-12T19:46:06.316Z,100199.53
2023-05-12T19:48:33.351Z,100200.00
2023-05-12T19:51:00.760Z,100211.06
2023-05-12T19:53:27.835Z,100213.63
2023-05-12T19:55:55.090Z,100215.50
2023-05-12T19:58:22.327Z,100218.41
2023-05-12T20:00:49.284Z,100218.72
2023-05-12T20:03:16.417Z,100216.94
2023-05-12T20:05:43.469Z,100215.28
2023-05-12T20:08:10.509Z,100212.88
2023-05-12T20:10:37.539Z,100210.41
2023-05-12T20:13:04.969Z,100216.47
2023-05-12T20:15:32.363Z,100224.13
2023-05-12T20:17:59.392Z,100217.31
2023-05-12T20:20:26.346Z,100216.09
2023-05-12T20:22:53.309Z,100225.69
2023-05-12T20:25:20.408Z,100217.84
2023-05-12T20:27:48.329Z,100220.97
2023-05-12T20:30:15.327Z,100227.16
2023-05-12T20:32:43.851Z,100227.53
2023-05-12T20:35:10.912Z,100225.22
2023-05-12T20:37:39.050Z,100235.56
2023-05-12T20:40:07.389Z,100228.91
2023-05-12T20:42:34.404Z,100235.50
2023-05-12T20:45:01.752Z,100227.19
2023-05-12T20:47:30.638Z,100234.25
2023-05-12T20:49:57.849Z,100229.72
2023-05-12T20:52:28.989Z,100227.47
2023-05-12T20:54:57.859Z,100224.78
2023-05-12T20:57:25.660Z,100231.66
2023-05-12T20:59:52.916Z,100230.03
2023-05-12T21:02:20.166Z,100234.81
2023-05-12T21:04:47.127Z,100228.59
2023-05-12T21:07:13.995Z,100221.97
2023-05-12T21:09:41.002Z,100230.47
2023-05-12T21:12:08.434Z,100227.53
2023-05-12T21:14:39.732Z,100238.97
2023-05-12T21:17:08.177Z,100241.63
2023-05-12T21:19:39.425Z,100240.91
2023-05-12T21:22:07.670Z,100253.53
2023-05-12T21:24:34.553Z,100245.84
2023-05-12T21:27:05.916Z,100248.16
2023-05-12T21:29:33.667Z,100253.34
2023-05-12T21:32:01.047Z,100255.22
2023-05-12T21:34:28.360Z,100250.34
2023-05-12T21:36:55.416Z,100247.13
2023-05-12T21:39:22.433Z,100251.31
2023-05-12T21:41:49.404Z,100256.78
2023-05-12T21:44:17.468Z,100253.63
2023-05-12T21:46:44.678Z,100262.34
2023-05-12T21:49:11.727Z,100260.00
2023-05-12T21:51:38.632Z,100266.47
2023-05-12T21:54:05.630Z,100262.34
2023-05-12T21:56:32.647Z,100252.41
2023-05-12T21:58:59.534Z,100248.44
2023-05-12T22:01:26.498Z,100255.50
2023-05-12T22:03:53.531Z,100257.19
2023-05-12T22:06:20.592Z,100262.28
2023-05-12T22:08:47.507Z,100255.16
2023-05-12T22:11:14.478Z,100259.22
2023-05-12T22:13:41.553Z,100251.59
2023-05-12T22:16:08.667Z,100250.53
2023-05-12T22:18:35.807Z,100267.97
2023-05-12T22:21:02.769Z,100267.41
2023-05-12T22:23:29.910Z,100267.41
2023-05-12T22:25:56.827Z,100261.59
2023-05-12T22:28:23.838Z,100262.59
2023-05-12T22:30:50.703Z,100262.75
2023-05-12T22:33:17.631Z,100268.59
2023-05-12T22:35:44.651Z,100258.03
2023-05-12T22:38:11.616Z,100254.13
2023-05-12T22:40:38.591Z,100261.59
2023-05-12T22:43:07.014Z,100258.16
2023-05-12T22:45:33.938Z,100253.81
2023-05-12T22:48:01.051Z,100249.28
2023-05-12T22:50:28.089Z,100250.94
2023-05-12T22:52:57.481Z,100243.69
2023-05-12T22:55:30.903Z,100248.00
2023-05-12T22:57:58.452Z,100240.81
2023-05-12T23:00:25.416Z,100244.38
2023-05-12T23:02:52.902Z,100239.44
2023-05-12T23:05:20.919Z,100239.91
2023-05-12T23:07:53.714Z,100236.63
2023-05-12T23:10:20.743Z,100246.78
2023-05-12T23:12:47.725Z,100237.47
2023-05-12T23:15:14.668Z,100243.34
2023-05-12T23:17:42.695Z,100247.91
2023-05-12T23:20:09.938Z,100252.06
2023-05-12T23:22:36.848Z,100248.38
2023-05-12T23:25:03.882Z,100248.09
2023-05-12T23:27:30.777Z,100245.00
2023-05-12T23:29:57.755Z,100252.00
2023-05-12T23:32:24.883Z,100243.91
2023-05-12T23:34:52.382Z,100243.09
2023-05-12T23:37:21.970Z,100239.16
2023-05-12T23:39:48.994Z,100241.09
2023-05-12T23:42:17.306Z,100238.84
2023-05-12T23:44:44.254Z,100240.09
2023-05-12T23:47:11.148Z,100242.81
2023-05-12T23:49:38.070Z,100235.44
2023-05-12T23:52:05.250Z,100236.53
2023-05-12T23:54:32.175Z,100238.38
2023-05-12T23:56:59.016Z,100237.34
2023-05-12T23:59:25.977Z,100239.44
